createdAt,value
2018-03-11T07:35:15.807Z,60.00
2018-03-11T07:36:15.771Z,60.00
2018-03-11T07:37:15.799Z,60.00
2018-03-11T07:38:15.790Z,52.00
2018-03-11T07:39:15.794Z,52.00
2018-03-11T07:40:15.888Z,52.00
2018-03-11T07:41:15.856Z,52.00
2018-03-11T07:42:15.842Z,56.00
2018-03-11T07:43:15.847Z,56.00
2018-03-11T07:44:15.877Z,56.00
2018-03-11T07:45:15.869Z,52.00
2018-03-11T07:46:15.922Z,56.00
2018-03-11T07:47:15.898Z,56.00
2018-03-11T07:48:15.916Z,56.00
2018-03-11T07:49:15.930Z,56.00
2018-03-11T07:50:15.933Z,56.00
2018-03-11T07:51:15.981Z,56.00
2018-03-11T07:52:15.993Z,56.00
2018-03-11T07:53:15.980Z,56.00
2018-03-11T07:54:15.994Z,56.00
2018-03-11T07:55:16.009Z,56.00
2018-03-11T07:56:16.014Z,56.00
2018-03-11T07:57:16.074Z,56.00
2018-03-11T07:58:16.068Z,56.00
2018-03-11T07:59:16.063Z,56.00
2018-03-11T08:00:16.089Z,56.00
2018-03-11T08:01:17.430Z,56.00
2018-03-11T08:02:16.164Z,60.00
2018-03-11T08:03:16.117Z,60.00
2018-03-11T08:04:16.126Z,56.00
2018-03-11T08:05:16.139Z,60.00
2018-03-11T08:06:16.174Z,60.00
2018-03-11T08:07:16.217Z,56.00
2018-03-11T08:08:16.214Z,56.00
2018-03-11T08:09:16.210Z,60.00
2018-03-11T08:10:16.219Z,56.00
2018-03-11T08:11:16.231Z,56.00
2018-03-11T08:12:16.285Z,56.00
2018-03-11T08:13:16.286Z,60.00
2018-03-11T08:14:16.275Z,60.00
2018-03-11T08:15:16.293Z,60.00
2018-03-11T08:16:16.307Z,60.00
2018-03-11T08:17:16.336Z,60.00
2018-03-11T08:18:16.375Z,64.00
2018-03-11T08:19:16.343Z,64.00
2018-03-11T08:20:16.436Z,60.00
2018-03-11T08:21:16.389Z,60.00
2018-03-11T08:22:16.391Z,64.00
2018-03-11T08:23:16.439Z,60.00
2018-03-11T08:24:16.550Z,64.00
2018-03-11T08:25:16.434Z,64.00
2018-03-11T08:26:16.446Z,68.00
2018-03-11T08:27:16.475Z,64.00
2018-03-11T08:28:16.480Z,64.00
2018-03-11T08:29:16.515Z,64.00
2018-03-11T08:30:16.514Z,64.00
2018-03-11T08:31:16.563Z,60.00
2018-03-11T08:32:16.528Z,60.00
2018-03-11T08:33:16.607Z,60.00
2018-03-11T08:34:16.583Z,60.00
2018-03-11T08:35:16.606Z,60.00
2018-03-11T08:36:16.649Z,60.00
2018-03-11T08:37:16.615Z,60.00
2018-03-11T08:38:16.626Z,60.00
2018-03-11T08:39:16.675Z,60.00
2018-03-11T08:40:16.671Z,60.00
2018-03-11T08:41:16.694Z,136.00
2018-03-11T08:42:16.710Z,132.00
2018-03-11T08:43:16.705Z,132.00
2018-03-11T08:44:16.713Z,132.00
2018-03-11T08:45:16.731Z,136.00
2018-03-11T08:46:16.782Z,136.00
2018-03-11T08:47:16.873Z,132.00
2018-03-11T08:48:16.785Z,132.00
2018-03-11T08:49:16.802Z,132.00
2018-03-11T08:50:16.843Z,132.00
2018-03-11T08:51:16.835Z,132.00
2018-03-11T08:52:16.879Z,128.00
2018-03-11T08:53:16.864Z,132.00
2018-03-11T08:54:16.904Z,128.00
2018-03-11T08:55:16.903Z,132.00
2018-03-11T08:56:16.898Z,132.00
2018-03-11T08:57:16.956Z,132.00
2018-03-11T08:58:17.013Z,132.00
2018-03-11T08:59:17.012Z,132.00
2018-03-11T09:00:16.977Z,136.00
2018-03-11T09:01:17.024Z,140.00
2018-03-11T09:02:17.045Z,140.00
2018-03-11T09:03:17.003Z,140.00
2018-03-11T09:04:17.025Z,140.00
2018-03-11T09:05:17.050Z,144.00
2018-03-11T09:06:17.059Z,144.00
2018-03-11T09:07:17.136Z,144.00
2018-03-11T09:08:17.078Z,144.00
2018-03-11T09:09:17.131Z,148.00
2018-03-11T09:10:17.148Z,148.00
2018-03-11T09:11:17.120Z,148.00
2018-03-11T12:34:26.704Z,668.00
2018-03-11T12:35:26.622Z,676.00
2018-03-11T12:36:26.630Z,680.00
2018-03-11T12:37:26.637Z,708.00
2018-03-11T12:38:26.659Z,788.00
2018-03-11T12:39:26.675Z,776.00
2018-03-11T12:40:26.687Z,692.00
2018-03-11T12:41:26.707Z,684.00
2018-03-11T12:42:26.677Z,684.00
2018-03-11T12:43:26.687Z,688.00
2018-03-11T12:44:26.708Z,696.00
2018-03-11T12:45:26.716Z,696.00
2018-03-11T12:46:26.758Z,708.00
2018-03-11T12:47:26.735Z,744.00
2018-03-11T12:48:26.759Z,792.00
2018-03-11T12:49:26.766Z,752.00
2018-03-11T12:50:26.771Z,732.00
2018-03-11T12:51:26.827Z,736.00
2018-03-11T12:52:26.802Z,740.00
2018-03-11T12:53:26.839Z,732.00
2018-03-11T12:54:26.822Z,724.00
2018-03-11T12:55:26.888Z,736.00
2018-03-11T12:56:26.858Z,740.00
2018-03-11T12:57:26.845Z,736.00
2018-03-11T12:58:26.847Z,732.00
2018-03-11T12:59:26.863Z,728.00
2018-03-11T13:00:26.909Z,736.00
2018-03-11T13:01:26.891Z,736.00
2018-03-11T13:02:26.919Z,744.00
2018-03-11T13:03:26.922Z,748.00
2018-03-11T13:04:26.925Z,744.00
2018-03-11T13:05:26.989Z,740.00
2018-03-11T13:06:27.028Z,712.00
2018-03-11T13:07:26.969Z,708.00
2018-03-11T13:08:26.982Z,728.00
2018-03-11T13:09:27.034Z,728.00
2018-03-11T13:10:27.062Z,732.00
2018-03-11T13:11:27.018Z,724.00
2018-03-11T13:12:27.046Z,736.00
2018-03-11T13:13:27.052Z,728.00
2018-03-11T13:14:27.067Z,728.00
2018-03-11T13:15:27.096Z,744.00
2018-03-11T13:16:27.123Z,768.00
2018-03-11T13:17:27.128Z,848.00
2018-03-11T13:18:27.112Z,884.00
2018-03-11T13:19:27.160Z,928.00
2018-03-11T13:20:27.222Z,968.00
2018-03-11T13:21:27.178Z,980.00
2018-03-11T13:22:27.157Z,972.00
2018-03-11T13:23:27.172Z,976.00
2018-03-11T13:24:27.194Z,1064.00
2018-03-11T13:25:27.288Z,1060.00
2018-03-11T13:26:27.228Z,1152.00
2018-03-11T13:27:27.232Z,1056.00
2018-03-11T13:28:27.302Z,1184.00
2018-03-11T13:29:27.261Z,996.00
2018-03-11T13:30:27.274Z,960.00
2018-03-11T13:31:27.292Z,980.00
2018-03-11T13:32:27.294Z,1056.00
2018-03-11T13:33:27.357Z,1048.00
2018-03-11T13:34:27.326Z,1068.00
2018-03-11T13:35:27.358Z,1080.00
2018-03-11T13:36:27.354Z,1104.00
2018-03-11T13:37:27.359Z,1120.00
2018-03-11T13:38:27.487Z,1112.00
2018-03-11T13:39:27.394Z,1124.00
2018-03-11T13:40:27.428Z,1116.00
2018-03-11T13:41:27.415Z,1120.00
2018-03-11T13:42:27.460Z,1128.00
2018-03-11T13:43:27.517Z,1116.00
2018-03-11T13:44:27.507Z,1080.00
2018-03-11T13:45:27.473Z,1036.00
2018-03-11T13:46:27.627Z,980.00
2018-03-11T13:47:27.500Z,940.00
2018-03-11T13:48:27.516Z,940.00
2018-03-11T13:49:27.539Z,932.00
2018-03-11T13:50:27.552Z,944.00
2018-03-11T13:51:27.556Z,916.00
2018-03-11T13:52:27.640Z,1000.00
2018-03-11T13:53:27.578Z,868.00
2018-03-11T13:54:27.605Z,808.00
2018-03-11T13:55:27.609Z,800.00
2018-03-11T13:56:27.646Z,768.00
2018-03-11T13:57:27.696Z,736.00
2018-03-11T13:58:27.671Z,708.00
2018-03-11T13:59:27.684Z,700.00
2018-03-11T14:00:27.674Z,696.00
2018-03-11T14:01:27.697Z,708.00
2018-03-11T14:02:27.735Z,748.00
2018-03-11T14:03:27.770Z,764.00
2018-03-11T14:04:27.894Z,776.00
2018-03-11T14:05:27.770Z,804.00
2018-03-11T14:06:27.907Z,852.00
2018-03-11T14:07:27.864Z,896.00
2018-03-11T14:08:27.815Z,932.00
2018-03-11T14:09:27.863Z,960.00
2018-03-11T14:10:27.834Z,960.00
2018-03-11T14:11:27.879Z,952.00
2018-03-11T14:12:27.889Z,920.00
2018-03-11T14:13:27.998Z,896.00
2018-03-11T14:14:27.892Z,872.00
2018-03-11T14:15:27.913Z,864.00
2018-03-11T14:16:27.915Z,856.00
2018-03-11T14:17:27.930Z,864.00
2018-03-11T14:18:27.951Z,784.00
2018-03-11T14:19:27.996Z,752.00
2018-03-11T14:20:27.977Z,736.00
2018-03-11T14:21:27.990Z,724.00
2018-03-11T14:22:28.005Z,704.00
2018-03-11T14:23:28.033Z,692.00
2018-03-11T14:24:28.073Z,692.00
2018-03-11T14:25:28.040Z,672.00
2018-03-11T14:26:28.085Z,668.00
2018-03-11T14:27:28.102Z,656.00
2018-03-11T14:28:28.089Z,648.00
2018-03-11T14:29:28.128Z,632.00
2018-03-11T14:30:28.169Z,624.00
2018-03-11T14:31:28.143Z,616.00
2018-03-11T14:32:28.137Z,612.00
2018-03-11T14:33:28.188Z,612.00
2018-03-11T14:34:28.256Z,616.00
2018-03-11T14:35:28.186Z,628.00
2018-03-11T14:36:28.196Z,616.00
2018-03-11T14:37:28.209Z,596.00
2018-03-11T14:38:28.273Z,600.00
2018-03-11T14:39:28.259Z,612.00
2018-03-11T14:40:28.247Z,616.00
2018-03-11T14:41:28.288Z,620.00
2018-03-11T14:42:28.280Z,624.00
2018-03-11T14:43:28.353Z,628.00
2018-03-11T14:44:28.309Z,628.00
2018-03-11T14:45:28.330Z,640.00
2018-03-11T14:46:28.331Z,632.00
2018-03-11T14:47:28.352Z,636.00
2018-03-11T14:48:28.406Z,632.00
2018-03-11T14:49:28.388Z,632.00
2018-03-11T14:50:28.394Z,624.00
2018-03-11T14:51:28.404Z,624.00
2018-03-11T14:52:28.420Z,620.00
2018-03-11T14:53:28.471Z,608.00
2018-03-11T14:54:28.477Z,612.00
2018-03-11T14:55:28.483Z,612.00
2018-03-11T14:56:28.749Z,608.00
2018-03-11T14:57:28.494Z,600.00
2018-03-11T14:58:28.510Z,592.00
2018-03-11T14:59:28.541Z,584.00
2018-03-11T15:00:28.579Z,576.00
2018-03-11T15:01:28.588Z,568.00
2018-03-11T15:02:28.595Z,560.00
2018-03-11T15:03:28.640Z,552.00
2018-03-11T15:04:28.638Z,548.00
2018-03-11T15:05:28.629Z,552.00
2018-03-11T15:06:28.637Z,548.00
